createdAt,value
2023-12-05T00:02:11.491Z,1.75
2023-12-05T00:04:38.709Z,1.75
2023-12-05T00:07:05.662Z,1.70
2023-12-05T00:09:32.562Z,1.17
2023-12-05T00:11:59.177Z,1.40
2023-12-05T00:14:26.341Z,2.13
2023-12-05T00:16:52.959Z,1.67
2023-12-05T00:19:19.592Z,1.35
2023-12-05T00:21:46.457Z,2.15
2023-12-05T00:24:13.190Z,1.60
2023-12-05T00:26:39.827Z,1.63
2023-12-05T00:29:06.456Z,1.30
2023-12-05T00:31:33.075Z,2.65
2023-12-05T00:34:00.494Z,1.80
2023-12-05T00:36:27.206Z,1.60
2023-12-05T00:38:53.852Z,1.65
2023-12-05T00:41:20.409Z,1.77
2023-12-05T00:43:47.447Z,1.27
2023-12-05T00:46:14.152Z,1.58
2023-12-05T00:48:40.839Z,2.17
2023-12-05T00:51:07.829Z,2.03
2023-12-05T00:53:34.468Z,1.35
2023-12-05T00:56:01.672Z,1.55
2023-12-05T00:58:28.318Z,1.77
2023-12-05T01:00:54.933Z,1.80
2023-12-05T01:03:22.267Z,1.83
2023-12-05T01:05:49.295Z,1.90
2023-12-05T01:08:16.004Z,2.75
2023-12-05T01:10:42.748Z,1.95
2023-12-05T01:13:09.371Z,2.20
2023-12-05T01:15:36.678Z,1.55
2023-12-05T01:18:07.140Z,2.15
2023-12-05T01:20:34.548Z,1.48
2023-12-05T01:23:02.009Z,3.08
2023-12-05T01:25:28.642Z,2.10
2023-12-05T01:27:56.394Z,1.38
2023-12-05T01:30:23.070Z,2.38
2023-12-05T01:32:49.755Z,1.95
2023-12-05T01:35:17.744Z,1.85
2023-12-05T01:37:44.413Z,1.52
2023-12-05T01:40:11.258Z,1.45
2023-12-05T01:42:38.961Z,1.30
2023-12-05T01:45:06.584Z,1.98
2023-12-05T01:47:42.667Z,1.95
2023-12-05T01:50:22.917Z,2.08
2023-12-05T01:52:53.457Z,1.60
2023-12-05T01:55:22.018Z,1.73
2023-12-05T01:57:49.812Z,2.35
2023-12-05T02:00:17.470Z,2.28
2023-12-05T02:02:44.597Z,2.50
2023-12-05T02:05:11.901Z,2.38
2023-12-05T02:07:38.751Z,3.10
2023-12-05T02:10:07.535Z,1.98
2023-12-05T02:12:34.665Z,3.40
2023-12-05T02:15:01.363Z,2.45
2023-12-05T02:17:43.703Z,2.83
2023-12-05T02:20:22.344Z,2.28
2023-12-05T02:23:18.097Z,1.90
2023-12-05T02:26:10.086Z,2.40
2023-12-05T02:28:38.418Z,2.03
2023-12-05T02:31:07.106Z,1.88
2023-12-05T02:33:34.811Z,2.10
2023-12-05T02:36:10.349Z,2.60
2023-12-05T02:39:09.157Z,2.30
2023-12-05T02:41:38.263Z,1.27
2023-12-05T02:44:13.208Z,2.03
2023-12-05T02:46:42.117Z,1.98
2023-12-05T02:49:09.803Z,1.65
2023-12-05T02:51:36.906Z,3.67
2023-12-05T02:54:08.182Z,1.70
2023-12-05T02:56:37.133Z,1.58
2023-12-05T02:59:04.725Z,1.33
2023-12-05T03:01:38.455Z,1.52
2023-12-05T03:04:05.218Z,2.10
2023-12-05T03:06:32.206Z,2.38
2023-12-05T03:09:02.470Z,1.92
2023-12-05T03:11:29.424Z,2.00
2023-12-05T03:13:56.165Z,2.47
2023-12-05T03:16:22.819Z,1.83
2023-12-05T03:18:49.692Z,1.52
2023-12-05T03:21:19.053Z,1.58
2023-12-05T03:23:45.941Z,1.80
2023-12-05T03:26:23.640Z,2.03
2023-12-05T03:28:51.287Z,1.98
2023-12-05T03:31:18.829Z,1.73
2023-12-05T03:33:46.005Z,1.55
2023-12-05T03:36:13.851Z,1.25
2023-12-05T03:38:41.192Z,1.67
2023-12-05T03:41:09.763Z,1.70
2023-12-05T03:43:36.570Z,2.20
2023-12-05T03:46:03.311Z,1.33
2023-12-05T03:48:30.132Z,2.03
2023-12-05T03:50:56.875Z,2.00
2023-12-05T03:53:23.752Z,2.13
2023-12-05T03:55:50.355Z,1.80
2023-12-05T03:58:17.565Z,1.73
2023-12-05T04:00:44.372Z,1.60
2023-12-05T04:03:11.507Z,1.95
2023-12-05T04:05:40.060Z,1.35
2023-12-05T04:08:07.390Z,1.90
2023-12-05T04:10:34.131Z,1.02
2023-12-05T04:13:00.773Z,1.63
2023-12-05T04:15:27.566Z,1.55
2023-12-05T04:17:54.231Z,1.88
2023-12-05T04:20:22.639Z,1.90
2023-12-05T04:22:49.263Z,1.58
2023-12-05T04:25:17.137Z,1.60
2023-12-05T04:27:44.178Z,1.67
2023-12-05T04:30:11.524Z,2.22
2023-12-05T04:32:38.136Z,2.13
2023-12-05T04:35:05.237Z,2.17
2023-12-05T04:37:31.786Z,1.30
2023-12-05T04:39:58.373Z,1.55
2023-12-05T04:42:25.065Z,1.80
2023-12-05T04:44:51.785Z,1.40
2023-12-05T04:47:18.364Z,1.88
2023-12-05T04:49:45.454Z,1.30
2023-12-05T04:52:13.818Z,2.10
2023-12-05T04:54:40.602Z,1.55
2023-12-05T04:57:07.193Z,1.60
2023-12-05T04:59:33.760Z,0.90
2023-12-05T05:02:00.524Z,1.38
2023-12-05T05:04:27.615Z,1.27
2023-12-05T05:06:54.464Z,1.85
2023-12-05T05:09:21.142Z,1.85
2023-12-05T05:11:47.790Z,1.30
2023-12-05T05:14:15.030Z,1.67
2023-12-05T05:16:41.645Z,1.40
2023-12-05T05:19:08.499Z,1.30
2023-12-05T05:21:35.567Z,1.27
2023-12-05T05:24:02.204Z,1.35
2023-12-05T05:26:28.849Z,1.80
2023-12-05T05:28:57.656Z,1.85
2023-12-05T05:31:24.250Z,2.05
2023-12-05T05:33:50.984Z,1.83
2023-12-05T05:36:17.862Z,1.50
2023-12-05T05:38:44.995Z,1.42
2023-12-05T05:41:11.689Z,1.88
2023-12-05T05:43:38.245Z,1.33
2023-12-05T05:46:05.190Z,1.25
2023-12-05T05:48:32.061Z,2.45
2023-12-05T05:50:58.734Z,1.48
2023-12-05T05:53:25.326Z,1.48
2023-12-05T05:55:51.967Z,1.58
2023-12-05T05:58:19.030Z,1.00
2023-12-05T06:00:46.223Z,1.80
2023-12-05T06:03:12.985Z,1.10
2023-12-05T06:05:39.724Z,1.23
2023-12-05T06:08:06.369Z,0.88
2023-12-05T06:10:32.976Z,1.55
2023-12-05T06:12:59.715Z,1.63
2023-12-05T06:15:26.293Z,1.48
2023-12-05T06:17:53.033Z,1.10
2023-12-05T06:20:20.164Z,0.82
2023-12-05T06:22:46.745Z,1.20
2023-12-05T06:25:13.368Z,1.00
2023-12-05T06:27:39.998Z,1.20
2023-12-05T06:30:13.594Z,1.92
2023-12-05T06:32:48.119Z,1.73
2023-12-05T06:35:15.059Z,1.02
2023-12-05T06:37:41.717Z,1.38
2023-12-05T06:40:09.113Z,0.80
2023-12-05T06:42:36.334Z,0.90
2023-12-05T06:45:03.966Z,1.20
2023-12-05T06:47:31.775Z,1.20
2023-12-05T06:50:02.802Z,2.25
2023-12-05T06:52:29.628Z,1.25
2023-12-05T06:54:56.474Z,0.90
2023-12-05T06:57:23.725Z,0.80
2023-12-05T06:59:51.061Z,1.00
2023-12-05T07:02:18.381Z,0.88
2023-12-05T07:04:45.279Z,0.70
2023-12-05T07:07:12.225Z,1.00
2023-12-05T07:09:39.053Z,1.13
2023-12-05T07:12:06.254Z,1.23
2023-12-05T07:14:36.409Z,1.10
2023-12-05T07:17:03.687Z,1.00
2023-12-05T07:19:30.565Z,1.02
2023-12-05T07:21:57.287Z,0.90
2023-12-05T07:24:24.286Z,0.95
2023-12-05T07:26:51.099Z,1.20
2023-12-05T07:29:17.768Z,1.10
2023-12-05T07:31:44.723Z,1.00
2023-12-05T07:34:11.486Z,1.02
2023-12-05T07:36:42.530Z,1.10
2023-12-05T07:39:16.575Z,1.23
2023-12-05T07:41:43.204Z,1.70
2023-12-05T07:44:11.735Z,1.40
2023-12-05T07:46:42.243Z,0.80
2023-12-05T07:49:09.520Z,0.93
2023-12-05T07:54:05.266Z,1.20
2023-12-05T07:56:32.306Z,0.98
2023-12-05T07:58:59.015Z,1.40
2023-12-05T08:01:25.849Z,1.00
2023-12-05T08:03:52.727Z,1.42
2023-12-05T08:06:20.080Z,1.20
2023-12-05T08:08:46.830Z,1.27
2023-12-05T08:11:13.511Z,1.23
2023-12-05T08:13:40.190Z,1.00
2023-12-05T08:16:07.132Z,1.40
2023-12-05T08:18:33.838Z,0.93
2023-12-05T08:21:00.649Z,1.05
2023-12-05T08:23:27.402Z,1.67
2023-12-05T08:25:53.958Z,1.27
2023-12-05T08:28:20.584Z,1.25
2023-12-05T08:30:47.298Z,1.35
2023-12-05T08:33:15.341Z,0.80
2023-12-05T08:35:42.155Z,1.02
2023-12-05T08:38:08.794Z,1.35
2023-12-05T08:40:35.548Z,2.50
2023-12-05T08:43:04.296Z,1.17
2023-12-05T08:45:30.964Z,1.48
2023-12-05T08:47:57.647Z,1.15
2023-12-05T08:50:26.783Z,1.35
2023-12-05T08:52:53.500Z,1.75
2023-12-05T08:55:20.446Z,1.90
2023-12-05T08:57:47.067Z,1.30
2023-12-05T09:00:14.144Z,2.17
2023-12-05T09:02:40.758Z,1.00
2023-12-05T09:05:07.821Z,0.90
2023-12-05T09:07:34.730Z,1.27
2023-12-05T09:10:02.266Z,1.73
2023-12-05T09:12:29.107Z,1.10
2023-12-05T09:14:56.708Z,0.90
2023-12-05T09:17:23.447Z,1.20
2023-12-05T09:19:52.126Z,0.93
2023-12-05T09:22:19.096Z,1.13
2023-12-05T09:24:47.005Z,0.70
2023-12-05T09:27:13.898Z,0.93
2023-12-05T09:29:49.879Z,0.93
2023-12-05T09:32:18.584Z,1.20
2023-12-05T09:34:45.973Z,1.30
2023-12-05T09:37:13.222Z,1.10
2023-12-05T09:39:40.930Z,2.95
2023-12-05T09:42:12.100Z,2.15
2023-12-05T09:44:45.359Z,1.67
2023-12-05T09:47:15.376Z,1.20
2023-12-05T09:49:43.227Z,0.88
2023-12-05T09:52:10.006Z,0.88
2023-12-05T09:54:37.324Z,0.98
2023-12-05T09:57:05.135Z,0.93
2023-12-05T09:59:31.856Z,0.90
2023-12-05T10:02:03.756Z,1.08
2023-12-05T10:04:36.831Z,0.77
2023-12-05T10:07:04.319Z,1.05
2023-12-05T10:09:32.729Z,0.80
2023-12-05T10:11:59.493Z,1.40
2023-12-05T10:14:27.703Z,0.98
2023-12-05T10:16:55.999Z,0.88
2023-12-05T10:19:23.355Z,0.60
2023-12-05T10:21:51.994Z,0.70
2023-12-05T10:24:19.149Z,1.15
2023-12-05T10:26:49.611Z,1.15
2023-12-05T10:29:17.406Z,1.10
2023-12-05T10:31:44.352Z,0.82
2023-12-05T10:34:11.176Z,1.02
2023-12-05T10:36:37.988Z,0.85
2023-12-05T10:39:06.450Z,0.70
2023-12-05T10:41:33.011Z,0.98
2023-12-05T10:44:01.078Z,0.70
2023-12-05T10:46:28.467Z,1.67
2023-12-05T10:48:57.358Z,1.10
2023-12-05T10:51:30.118Z,0.70
2023-12-05T10:53:57.422Z,0.93
2023-12-05T10:56:25.069Z,1.60
2023-12-05T10:58:54.269Z,0.88
2023-12-05T11:01:23.047Z,0.93
2023-12-05T11:03:51.742Z,0.80
2023-12-05T11:06:18.953Z,1.17
2023-12-05T11:08:46.060Z,0.70
2023-12-05T11:11:14.411Z,1.35
2023-12-05T11:13:42.762Z,0.50
2023-12-05T11:16:28.719Z,1.25
2023-12-05T11:19:09.505Z,2.35
2023-12-05T11:22:03.982Z,1.73
2023-12-05T11:24:33.404Z,1.00
2023-12-05T11:27:18.519Z,2.25
2023-12-05T11:30:16.320Z,0.95
2023-12-05T11:32:55.101Z,0.80
2023-12-05T11:35:53.794Z,0.70
2023-12-05T11:38:23.440Z,0.73
2023-12-05T11:41:12.714Z,0.80
2023-12-05T11:43:46.937Z,0.63
2023-12-05T11:46:17.310Z,1.20
2023-12-05T11:48:44.129Z,0.82
2023-12-05T11:51:13.579Z,0.82
2023-12-05T11:53:41.065Z,1.23
2023-12-05T11:56:18.977Z,1.23
2023-12-05T11:58:45.683Z,0.90
2023-12-05T12:01:16.286Z,0.68
2023-12-05T12:03:54.711Z,0.52
2023-12-05T12:06:24.305Z,0.95
2023-12-05T12:08:57.641Z,0.68
2023-12-05T12:11:24.595Z,0.57
2023-12-05T12:13:51.854Z,0.70
2023-12-05T12:16:20.403Z,0.60
2023-12-05T12:18:53.506Z,0.63
2023-12-05T12:21:23.624Z,0.85
2023-12-05T12:23:55.903Z,0.50
2023-12-05T12:26:22.535Z,0.60
2023-12-05T12:28:50.678Z,0.82
2023-12-05T12:31:27.209Z,0.80
2023-12-05T12:33:54.940Z,0.63
2023-12-05T12:36:23.374Z,0.68
2023-12-05T12:38:51.424Z,0.93
2023-12-05T12:41:18.427Z,0.93
2023-12-05T12:43:45.145Z,1.45
2023-12-05T12:46:11.696Z,0.45
2023-12-05T12:48:41.087Z,0.90
2023-12-05T12:51:08.243Z,0.60
2023-12-05T12:53:36.451Z,0.77
2023-12-05T12:56:07.821Z,0.82
2023-12-05T12:58:35.648Z,0.50
2023-12-05T13:01:02.590Z,0.98
2023-12-05T13:03:29.585Z,0.60
2023-12-05T13:05:56.723Z,0.65
2023-12-05T13:08:23.380Z,0.88
2023-12-05T13:10:50.166Z,0.57
2023-12-05T13:13:17.745Z,0.85
2023-12-05T13:15:45.506Z,1.23
2023-12-05T13:18:12.607Z,0.68
2023-12-05T13:20:50.415Z,0.80
2023-12-05T13:23:18.426Z,0.60
2023-12-05T13:25:46.393Z,0.80
2023-12-05T13:28:14.668Z,0.75
2023-12-05T13:30:42.886Z,0.40
2023-12-05T13:33:12.984Z,0.60
2023-12-05T13:35:40.664Z,0.75
2023-12-05T13:38:08.878Z,1.02
2023-12-05T13:40:37.345Z,0.65
2023-12-05T13:43:05.218Z,0.82
2023-12-05T13:45:32.024Z,0.70
2023-12-05T13:47:58.679Z,1.05
2023-12-05T13:50:26.955Z,0.70
2023-12-05T13:52:53.613Z,1.15
2023-12-05T13:55:20.233Z,1.27
2023-12-05T13:57:46.850Z,1.00
2023-12-05T14:00:14.254Z,1.42
2023-12-05T14:02:40.842Z,1.05
2023-12-05T14:05:09.010Z,0.70
2023-12-05T14:07:36.493Z,0.50
2023-12-05T14:10:03.404Z,0.90
2023-12-05T14:12:30.053Z,0.60
2023-12-05T14:14:56.736Z,0.73
2023-12-05T14:17:23.370Z,0.60
2023-12-05T14:19:49.935Z,0.80
2023-12-05T14:22:17.974Z,0.80
2023-12-05T14:24:44.892Z,0.70
2023-12-05T14:27:11.491Z,0.98
2023-12-05T14:29:38.186Z,0.73
2023-12-05T14:32:05.485Z,0.95
2023-12-05T14:34:32.147Z,0.88
2023-12-05T14:36:58.885Z,0.68
2023-12-05T14:39:25.674Z,0.80
2023-12-05T14:41:52.783Z,0.75
2023-12-05T14:44:19.515Z,1.55
2023-12-05T14:46:46.154Z,0.98
2023-12-05T14:49:13.964Z,0.93
2023-12-05T14:51:40.976Z,0.95
2023-12-05T14:54:07.549Z,0.90
2023-12-05T14:56:34.122Z,1.77
2023-12-05T14:59:00.783Z,1.30
2023-12-05T15:01:27.546Z,0.82
2023-12-05T15:03:54.370Z,0.75
2023-12-05T15:06:21.277Z,0.93
2023-12-05T15:08:48.464Z,1.15
2023-12-05T15:11:16.302Z,0.60
2023-12-05T15:13:43.071Z,1.15
2023-12-05T15:16:09.944Z,1.52
2023-12-05T15:18:37.361Z,0.98
2023-12-05T15:21:04.691Z,1.50
2023-12-05T15:23:31.367Z,0.68
2023-12-05T15:25:59.538Z,0.63
2023-12-05T15:28:29.086Z,1.17
2023-12-05T15:30:56.959Z,1.10
2023-12-05T15:33:23.696Z,1.30
2023-12-05T15:35:50.939Z,0.85
2023-12-05T15:38:17.563Z,0.90
2023-12-05T15:40:45.078Z,0.82
2023-12-05T15:43:11.965Z,0.70
2023-12-05T15:45:38.905Z,0.98
2023-12-05T15:48:07.714Z,0.70
2023-12-05T15:50:54.165Z,0.60
2023-12-05T15:53:20.734Z,1.02
2023-12-05T15:55:48.870Z,0.80
2023-12-05T15:58:15.515Z,2.13
2023-12-05T16:00:43.493Z,1.00
2023-12-05T16:03:10.470Z,0.90
2023-12-05T16:05:37.115Z,1.48
2023-12-05T16:08:04.367Z,1.67
2023-12-05T16:10:31.009Z,1.40
2023-12-05T16:12:57.643Z,1.65
2023-12-05T16:15:25.073Z,2.25
2023-12-05T16:17:51.750Z,2.47
2023-12-05T16:20:18.418Z,2.90
2023-12-05T16:22:45.187Z,2.40
2023-12-05T16:25:11.815Z,2.30
2023-12-05T16:27:38.526Z,1.80
2023-12-05T16:30:07.584Z,1.60
2023-12-05T16:32:35.102Z,1.67
2023-12-05T16:35:02.528Z,2.00
2023-12-05T16:37:29.283Z,1.38
2023-12-05T16:39:55.967Z,1.60
2023-12-05T16:42:22.736Z,2.00
2023-12-05T16:44:49.343Z,1.48
2023-12-05T16:47:16.052Z,2.17
2023-12-05T16:49:43.205Z,2.63
2023-12-05T16:52:10.519Z,3.00
2023-12-05T16:54:38.877Z,2.25
2023-12-05T16:57:05.844Z,2.85
2023-12-05T16:59:34.970Z,3.05
2023-12-05T17:02:02.480Z,2.70
2023-12-05T17:04:29.338Z,2.65
2023-12-05T17:06:56.221Z,2.53
2023-12-05T17:09:23.186Z,2.60
2023-12-05T17:11:49.855Z,2.85
2023-12-05T17:14:16.503Z,3.30
2023-12-05T17:16:43.889Z,3.58
2023-12-05T17:19:10.650Z,2.42
2023-12-05T17:21:37.426Z,2.45
2023-12-05T17:24:04.445Z,2.40
2023-12-05T17:26:31.390Z,2.20
2023-12-05T17:28:57.963Z,2.45
2023-12-05T17:31:24.579Z,2.92
2023-12-05T17:33:51.314Z,2.50
2023-12-05T17:36:17.984Z,1.70
2023-12-05T17:38:45.083Z,2.08
2023-12-05T17:41:11.731Z,2.65
2023-12-05T17:43:41.361Z,2.13
2023-12-05T17:46:08.356Z,2.15
2023-12-05T17:48:35.204Z,1.10
2023-12-05T17:51:01.878Z,1.08
2023-12-05T17:53:30.448Z,1.83
2023-12-05T17:55:58.352Z,1.25
2023-12-05T17:58:25.022Z,1.80
2023-12-05T18:00:52.307Z,2.28
2023-12-05T18:03:18.967Z,1.30
2023-12-05T18:05:46.156Z,1.70
2023-12-05T18:08:13.277Z,1.52
2023-12-05T18:10:40.844Z,1.52
2023-12-05T18:13:07.655Z,1.83
2023-12-05T18:15:34.405Z,1.45
2023-12-05T18:18:01.178Z,1.30
2023-12-05T18:20:28.011Z,1.50
2023-12-05T18:22:54.717Z,1.40
2023-12-05T18:25:23.431Z,2.17
2023-12-05T18:27:53.374Z,1.60
2023-12-05T18:30:20.392Z,2.13
2023-12-05T18:32:48.286Z,1.80
2023-12-05T18:35:15.065Z,1.05
2023-12-05T18:37:42.012Z,1.88
2023-12-05T18:40:09.398Z,2.15
2023-12-05T18:42:36.108Z,1.70
2023-12-05T18:45:02.943Z,1.88
2023-12-05T18:47:29.590Z,2.05
2023-12-05T18:49:56.737Z,1.98
2023-12-05T18:52:23.527Z,2.35
2023-12-05T18:54:50.865Z,3.00
2023-12-05T18:57:17.579Z,3.45
2023-12-05T18:59:44.790Z,5.40
2023-12-05T19:02:11.420Z,3.40
2023-12-05T19:04:38.153Z,3.20
2023-12-05T19:07:04.861Z,3.50
2023-12-05T19:09:31.751Z,3.33
2023-12-05T19:12:01.919Z,2.95
2023-12-05T19:14:28.645Z,3.45
2023-12-05T19:16:55.300Z,3.47
2023-12-05T19:19:21.997Z,3.40
2023-12-05T19:21:49.248Z,3.88
2023-12-05T19:24:16.412Z,3.85
2023-12-05T19:26:42.989Z,3.97
2023-12-05T19:29:09.665Z,4.13
2023-12-05T19:31:36.627Z,4.30
2023-12-05T19:34:03.393Z,3.67
2023-12-05T19:36:30.107Z,3.92
2023-12-05T19:38:56.801Z,4.00
2023-12-05T19:41:23.384Z,5.78
2023-12-05T19:43:52.531Z,6.57
2023-12-05T19:46:19.529Z,4.22
2023-12-05T19:48:47.180Z,4.88
2023-12-05T19:51:13.865Z,4.70
2023-12-05T19:53:40.512Z,3.60
2023-12-05T19:56:07.425Z,3.45
2023-12-05T19:58:36.393Z,4.07
2023-12-05T20:01:03.284Z,3.67
2023-12-05T20:03:30.131Z,3.67
2023-12-05T20:05:56.754Z,4.60
2023-12-05T20:08:23.474Z,3.58
2023-12-05T20:10:50.289Z,4.22
2023-12-05T20:13:17.030Z,3.72
2023-12-05T20:15:44.403Z,3.53
2023-12-05T20:18:12.105Z,3.80
2023-12-05T20:20:38.846Z,4.28
2023-12-05T20:23:05.495Z,6.80
2023-12-05T20:25:32.226Z,7.57
2023-12-05T20:27:58.837Z,3.50
2023-12-05T20:30:25.699Z,4.60
2023-12-05T20:32:52.559Z,5.05
2023-12-05T20:35:19.394Z,4.03
2023-12-05T20:37:46.672Z,3.38
2023-12-05T20:40:13.542Z,12.77
2023-12-05T20:42:42.180Z,5.72
2023-12-05T20:45:10.006Z,4.38
2023-12-05T20:47:36.825Z,11.15
2023-12-05T20:50:04.135Z,6.00
2023-12-05T20:52:30.830Z,5.53
2023-12-05T20:54:57.653Z,3.75
2023-12-05T20:57:24.874Z,4.18
2023-12-05T20:59:51.655Z,4.25
2023-12-05T21:02:18.452Z,3.30
2023-12-05T21:04:45.298Z,5.07
2023-12-05T21:07:13.390Z,11.95
2023-12-05T21:09:40.117Z,3.92
2023-12-05T21:12:06.994Z,3.03
2023-12-05T21:14:33.672Z,5.60
2023-12-05T21:17:00.328Z,13.20
2023-12-05T21:19:27.379Z,10.98
2023-12-05T21:21:54.068Z,3.50
2023-12-05T21:24:20.651Z,2.22
2023-12-05T21:26:47.264Z,2.83
2023-12-05T21:29:13.972Z,4.20
2023-12-05T21:31:40.552Z,7.00
2023-12-05T21:34:07.559Z,3.92
2023-12-05T21:36:34.247Z,3.30
2023-12-05T21:39:00.932Z,3.05
2023-12-05T21:41:28.729Z,4.13
2023-12-05T21:43:55.456Z,3.55
2023-12-05T21:46:30.527Z,3.50
2023-12-05T21:48:57.675Z,2.72
2023-12-05T21:51:24.561Z,3.63
2023-12-05T21:53:51.878Z,3.97
2023-12-05T21:56:18.889Z,2.30
2023-12-05T21:58:45.633Z,3.65
2023-12-05T22:01:16.810Z,6.00
2023-12-05T22:03:44.183Z,4.03
2023-12-05T22:06:12.073Z,6.93
2023-12-05T22:08:38.829Z,6.72
2023-12-05T22:11:06.080Z,7.93
2023-12-05T22:13:33.674Z,9.23
2023-12-05T22:16:01.835Z,10.10
2023-12-05T22:18:29.732Z,8.75
2023-12-05T22:20:57.370Z,7.95
2023-12-05T22:23:25.688Z,8.68
2023-12-05T22:25:53.443Z,7.72
2023-12-05T22:28:20.132Z,6.78
2023-12-05T22:30:46.722Z,9.60
2023-12-05T22:33:14.313Z,9.73
2023-12-05T22:35:43.211Z,8.70
2023-12-05T22:38:09.799Z,11.75
2023-12-05T22:40:36.496Z,14.32
2023-12-05T22:43:03.140Z,14.63
2023-12-05T22:45:29.798Z,14.75
2023-12-05T22:47:56.425Z,14.38
2023-12-05T22:50:23.140Z,14.52
2023-12-05T22:52:53.219Z,13.40
2023-12-05T22:55:20.995Z,12.32
2023-12-05T22:57:50.405Z,12.13
2023-12-05T23:00:25.293Z,10.93
2023-12-05T23:02:57.042Z,12.95
2023-12-05T23:05:25.712Z,12.15
2023-12-05T23:07:52.861Z,11.23
2023-12-05T23:10:21.188Z,12.13
2023-12-05T23:12:48.202Z,10.27
2023-12-05T23:15:14.957Z,10.05
2023-12-05T23:17:41.691Z,9.77
2023-12-05T23:20:10.807Z,9.60
2023-12-05T23:22:37.949Z,10.27
2023-12-05T23:25:04.924Z,10.95
2023-12-05T23:27:32.721Z,10.23
2023-12-05T23:29:59.905Z,10.68
2023-12-05T23:32:26.508Z,10.40
2023-12-05T23:34:53.453Z,9.48
2023-12-05T23:37:21.222Z,10.02
2023-12-05T23:39:49.318Z,9.55
2023-12-05T23:42:16.015Z,10.10
2023-12-05T23:44:43.291Z,9.32
2023-12-05T23:47:10.433Z,8.88
2023-12-05T23:49:37.345Z,8.10
2023-12-05T23:52:06.248Z,7.63
2023-12-05T23:54:33.922Z,8.18
2023-12-05T23:57:00.850Z,8.70
2023-12-05T23:59:27.703Z,9.23
